Weather at Lynden Pindling International Airport

Public forecast

Using degrees Celsius for public forecast. Weather courtesy of forecast.io.

Current aviation weather report (METAR) for Lynden Pindling International Airport

Report is more than 2 hours old.

Retrieved 2020/12/03 19:00 UTC (6 hours ago):

MYNN 031900Z 09010KT 9999 FEW040 24/14 A3014

Aviation forecast (TAF) for Lynden Pindling International Airport

Retrieved 2020-12-04 00:10 UTC (23 minutes ago):

TAF MYNN 032230Z 0400/0424 09007KT 9999 FEW040 TEMPO 0406/0412 CAVOK BECMG 0414/0416 SCT035 SCT200